Time;durP1;ratioP1;P1;durP2;ratioP2;P2;SDS_P1;SDS_P2;PMS_P1;PMS_P2;Temp;Humidity;BMP_temperature;BMP_pressure;BME280_temperature;BME280_humidity;BME280_pressure;Samples;Min_cycle;Max_cycle;Signal;HPM_P1;HPM_P2
2024/01/20 00:01:47;;;;;;;25.70;16.67;;;-2.60;1.00;;;;;;5103797;28;20514;-44
2024/01/20 00:04:12;;;;;;;29.40;19.40;;;-2.50;1.00;;;;;;5097786;28;20208;-45
2024/01/20 00:06:38;;;;;;;27.77;19.00;;;-2.40;1.00;;;;;;5116028;28;20183;-40
2024/01/20 00:09:03;;;;;;;28.57;18.47;;;-2.40;1.00;;;;;;5116339;28;20473;-42
2024/01/20 00:11:29;;;;;;;28.07;19.17;;;-2.40;99.90;;;;;;5116533;28;20576;-42
2024/01/20 00:13:54;;;;;;;29.03;19.03;;;-2.50;99.90;;;;;;5115924;28;20184;-42
2024/01/20 00:16:20;;;;;;;27.27;18.23;;;-2.60;1.00;;;;;;5117274;28;20691;-44
2024/01/20 00:18:45;;;;;;;27.60;17.83;;;-2.50;1.00;;;;;;5099192;28;20613;-43
2024/01/20 00:21:11;;;;;;;27.97;18.40;;;-2.50;1.00;;;;;;5117238;28;20416;-42
2024/01/20 00:23:39;;;;;;;34.30;20.40;;;-2.40;1.00;;;;;;5115561;28;20539;-42
2024/01/20 00:26:05;;;;;;;28.47;18.10;;;-2.40;1.00;;;;;;5114851;28;20264;-44
2024/01/20 00:28:30;;;;;;;27.83;19.00;;;-2.30;1.00;;;;;;5115367;28;20815;-42
2024/01/20 00:30:56;;;;;;;27.77;19.30;;;-2.30;99.90;;;;;;5097163;28;20176;-41
2024/01/20 00:33:22;;;;;;;27.20;17.37;;;-2.40;99.90;;;;;;5112746;28;20300;-41
2024/01/20 00:35:47;;;;;;;29.73;18.40;;;-2.40;99.90;;;;;;5115002;28;20203;-42
2024/01/20 00:38:13;;;;;;;30.93;22.70;;;-2.50;99.90;;;;;;5114591;28;20179;-44
2024/01/20 00:40:39;;;;;;;32.87;22.00;;;-2.40;1.00;;;;;;5115164;28;20255;-41
2024/01/20 00:43:05;;;;;;;32.07;23.03;;;-2.50;1.00;;;;;;5114697;28;20257;-42
2024/01/20 00:45:30;;;;;;;29.00;20.23;;;-2.50;1.00;;;;;;5114607;28;20207;-41
2024/01/20 00:47:56;;;;;;;28.43;18.60;;;-2.50;1.00;;;;;;5097237;28;20721;-41
2024/01/20 00:50:22;;;;;;;34.20;19.20;;;-2.50;99.90;;;;;;5114547;28;20580;-42
2024/01/20 00:52:48;;;;;;;30.13;20.60;;;-2.60;99.90;;;;;;5116096;28;20176;-42
2024/01/20 00:55:13;;;;;;;31.17;20.57;;;-2.70;1.00;;;;;;5114127;28;20490;-41
2024/01/20 00:57:39;;;;;;;31.83;20.10;;;-2.70;1.00;;;;;;5115236;28;20184;-41
2024/01/20 01:00:09;;;;;;;33.80;21.43;;;-2.70;1.00;;;;;;5116261;28;20713;-41
2024/01/20 01:02:35;;;;;;;32.30;21.13;;;-2.60;1.00;;;;;;5097958;28;20194;-43
2024/01/20 01:05:01;;;;;;;30.37;20.43;;;-2.50;1.00;;;;;;5097805;28;20548;-44
2024/01/20 01:07:26;;;;;;;34.50;21.17;;;-2.50;1.00;;;;;;5115974;28;20513;-44
2024/01/20 01:09:52;;;;;;;29.40;20.07;;;-2.50;1.00;;;;;;5116237;28;20191;-44
2024/01/20 01:12:17;;;;;;;33.17;21.10;;;-2.50;1.00;;;;;;5116562;28;20183;-44
2024/01/20 01:14:43;;;;;;;32.07;21.00;;;-2.40;1.00;;;;;;5115556;28;20194;-41
2024/01/20 01:17:08;;;;;;;27.20;18.50;;;-2.40;1.00;;;;;;5116659;28;20180;-43
2024/01/20 01:19:34;;;;;;;29.80;18.87;;;-2.40;99.90;;;;;;5116758;28;20426;-43
2024/01/20 01:22:00;;;;;;;27.53;18.80;;;-2.40;99.90;;;;;;5116955;28;20240;-43
2024/01/20 01:24:25;;;;;;;31.07;18.77;;;-2.40;99.90;;;;;;5113425;28;20239;-44
2024/01/20 01:26:51;;;;;;;31.87;19.40;;;-2.60;1.00;;;;;;5112750;28;20199;-45
2024/01/20 01:29:16;;;;;;;29.20;19.37;;;-2.70;1.00;;;;;;5115090;28;20171;-43
2024/01/20 01:31:43;;;;;;;33.73;19.80;;;-2.60;1.00;;;;;;5114014;28;20207;-41
2024/01/20 01:34:09;;;;;;;30.83;20.30;;;-2.60;1.00;;;;;;5113797;28;20184;-40
2024/01/20 01:36:34;;;;;;;35.00;22.20;;;-2.60;1.00;;;;;;5114479;28;20769;-42
2024/01/20 01:39:00;;;;;;;29.17;19.83;;;-2.60;1.00;;;;;;5115522;28;20269;-40
2024/01/20 01:41:26;;;;;;;29.57;21.00;;;-2.60;1.00;;;;;;5115542;28;20180;-42
2024/01/20 01:43:51;;;;;;;27.57;19.77;;;-2.70;1.00;;;;;;5114653;28;20224;-43
2024/01/20 01:46:17;;;;;;;24.93;17.83;;;-2.70;1.00;;;;;;5116213;28;20454;-42
2024/01/20 01:48:43;;;;;;;26.57;18.40;;;-2.70;1.00;;;;;;5098085;28;20175;-41
2024/01/20 01:51:08;;;;;;;28.60;19.70;;;-2.70;1.00;;;;;;5097540;28;20634;-44
2024/01/20 01:53:35;;;;;;;32.73;17.90;;;-2.70;1.00;;;;;;5116038;28;20516;-47
2024/01/20 01:56:01;;;;;;;38.83;19.77;;;-2.50;99.90;;;;;;5115929;28;20191;-48
2024/01/20 01:58:29;;;;;;;42.40;22.03;;;-1.20;1.00;;;;;;5096523;28;20908;-45
2024/01/20 02:00:55;;;;;;;46.00;21.17;;;0.40;1.00;;;;;;5112406;28;20425;-47
2024/01/20 02:03:21;;;;;;;50.10;26.47;;;0.90;1.00;;;;;;5094337;28;20433;-47
2024/01/20 02:05:46;;;;;;;36.23;24.33;;;1.50;1.00;;;;;;5112334;28;20175;-51
2024/01/20 02:08:12;;;;;;;33.17;24.13;;;1.70;1.00;;;;;;5112831;28;20413;-41
2024/01/20 02:10:38;;;;;;;26.10;17.87;;;1.60;1.00;;;;;;5113623;28;20253;-41
2024/01/20 02:13:04;;;;;;;24.03;18.80;;;1.00;1.00;;;;;;5096358;28;20266;-43
2024/01/20 02:15:30;;;;;;;26.67;17.77;;;0.40;1.00;;;;;;5097023;28;20422;-41
2024/01/20 02:17:55;;;;;;;25.30;17.97;;;-0.20;10.30;;;;;;5115400;28;20249;-41
2024/01/20 02:20:24;;;;;;;29.33;18.73;;;-0.60;1.00;;;;;;5115389;28;20465;-41
2024/01/20 02:22:49;;;;;;;25.63;16.17;;;-1.20;1.00;;;;;;5097106;28;20180;-41
2024/01/20 02:25:15;;;;;;;27.07;18.80;;;-1.60;99.90;;;;;;5115417;28;20475;-40
2024/01/20 02:27:41;;;;;;;25.93;18.83;;;-1.90;1.00;;;;;;5115419;28;20172;-41
2024/01/20 02:30:07;;;;;;;27.40;18.17;;;-2.10;6.20;;;;;;5116101;28;20240;-41
2024/01/20 02:32:32;;;;;;;26.00;19.37;;;-2.20;99.90;;;;;;5116189;28;20332;-42
2024/01/20 02:34:58;;;;;;;31.60;20.53;;;-2.20;99.90;;;;;;5097080;28;20852;-40
2024/01/20 02:37:23;;;;;;;29.50;19.43;;;-2.30;99.90;;;;;;5113433;28;20267;-41
2024/01/20 02:39:49;;;;;;;27.80;19.37;;;-2.30;99.90;;;;;;5114902;28;20263;-41
2024/01/20 02:42:15;;;;;;;27.70;17.30;;;-2.40;99.90;;;;;;5115874;28;20172;-39
2024/01/20 02:44:41;;;;;;;31.43;18.00;;;-2.60;99.90;;;;;;5115695;28;20210;-40
2024/01/20 02:47:07;;;;;;;24.63;16.20;;;-2.90;99.90;;;;;;5116045;28;20262;-40
2024/01/20 02:49:33;;;;;;;23.60;16.47;;;-3.00;99.90;;;;;;5116683;28;20528;-40
2024/01/20 02:51:58;;;;;;;29.00;18.87;;;-3.00;99.90;;;;;;5118193;28;20576;-41
2024/01/20 02:54:24;;;;;;;31.17;19.00;;;-3.00;99.90;;;;;;5118539;28;20562;-40
2024/01/20 02:56:49;;;;;;;24.97;17.30;;;-3.10;99.90;;;;;;5119347;28;20571;-41
2024/01/20 02:59:15;;;;;;;27.73;18.60;;;-3.20;1.00;;;;;;5101034;28;20172;-41
2024/01/20 03:01:40;;;;;;;26.63;17.60;;;-3.20;1.00;;;;;;5119244;28;20469;-41
2024/01/20 03:04:06;;;;;;;30.63;17.97;;;-3.10;99.90;;;;;;5118762;28;20554;-41
2024/01/20 03:06:32;;;;;;;28.07;17.87;;;-3.10;99.90;;;;;;5119069;28;20290;-40
2024/01/20 03:08:58;;;;;;;26.90;17.33;;;-3.20;99.90;;;;;;5118617;28;20262;-41
2024/01/20 03:11:24;;;;;;;29.27;17.90;;;-3.10;1.00;;;;;;5118757;28;20466;-40
2024/01/20 03:13:49;;;;;;;26.73;18.63;;;-3.10;1.00;;;;;;5118991;28;20241;-43
2024/01/20 03:16:16;;;;;;;32.50;19.90;;;-3.10;99.90;;;;;;5117305;27;20444;-42
2024/01/20 03:18:42;;;;;;;31.47;20.07;;;-3.10;99.90;;;;;;5118533;28;20265;-47
2024/01/20 03:21:08;;;;;;;33.37;19.33;;;-3.00;99.90;;;;;;5100500;28;20520;-41
2024/01/20 03:23:33;;;;;;;27.20;19.30;;;-3.00;99.90;;;;;;5118800;28;20453;-42
2024/01/20 03:26:06;;;;;;;30.70;19.27;;;-3.10;99.90;;;;;;5118635;28;20432;-41
2024/01/20 03:28:31;;;;;;;35.07;21.17;;;-3.10;99.90;;;;;;5118570;28;20186;-44
2024/01/20 03:30:57;;;;;;;29.87;18.80;;;-3.10;99.90;;;;;;5118711;28;20442;-41
2024/01/20 03:33:22;;;;;;;25.60;18.23;;;-3.20;99.90;;;;;;5118680;28;20239;-44
2024/01/20 03:35:48;;;;;;;24.50;18.53;;;-3.30;99.90;;;;;;5118584;28;20179;-40
2024/01/20 03:38:13;;;;;;;27.23;19.37;;;-3.40;99.90;;;;;;5118575;28;20506;-43
2024/01/20 03:40:39;;;;;;;31.60;20.00;;;-3.30;1.00;;;;;;5117841;28;20180;-44
2024/01/20 03:43:04;;;;;;;28.83;19.57;;;-3.30;99.90;;;;;;5118077;28;20176;-40
2024/01/20 03:45:30;;;;;;;36.77;22.67;;;-3.20;99.90;;;;;;5118241;28;20207;-41
2024/01/20 03:47:55;;;;;;;30.63;20.03;;;-3.30;99.90;;;;;;5118232;28;20268;-41
2024/01/20 03:50:21;;;;;;;31.37;21.13;;;-3.30;1.00;;;;;;5117139;28;20179;-41
2024/01/20 03:52:47;;;;;;;28.60;19.63;;;-3.30;1.00;;;;;;5117747;28;20192;-44
2024/01/20 03:55:12;;;;;;;30.30;19.63;;;-3.20;1.00;;;;;;5117872;28;20180;-42
2024/01/20 03:57:38;;;;;;;29.07;19.50;;;-3.20;1.00;;;;;;5117855;28;20183;-41
2024/01/20 04:00:04;;;;;;;33.67;22.27;;;-3.10;1.00;;;;;;5117471;28;20550;-41
2024/01/20 04:02:30;;;;;;;39.77;22.27;;;-3.10;99.90;;;;;;5117775;28;20176;-41
2024/01/20 04:04:56;;;;;;;30.70;19.30;;;-3.00;1.00;;;;;;5082812;28;20500;-41
2024/01/20 04:07:21;;;;;;;32.67;22.20;;;-3.00;99.90;;;;;;5117444;28;20463;-41
2024/01/20 04:09:47;;;;;;;35.07;21.70;;;-3.00;99.90;;;;;;5117392;28;20190;-41
2024/01/20 04:12:12;;;;;;;28.57;19.50;;;-3.00;99.90;;;;;;5116832;28;20191;-40
2024/01/20 04:14:38;;;;;;;28.43;19.60;;;-3.00;99.90;;;;;;5116801;28;20172;-41
2024/01/20 04:17:03;;;;;;;33.40;19.90;;;-3.00;99.90;;;;;;5114115;28;20187;-42
2024/01/20 04:19:29;;;;;;;28.97;19.20;;;-3.00;99.90;;;;;;5114028;28;20222;-41
2024/01/20 04:21:55;;;;;;;28.23;17.57;;;-3.10;99.90;;;;;;5115314;28;20206;-43
2024/01/20 04:24:20;;;;;;;26.77;17.97;;;-3.10;99.90;;;;;;5097114;28;20242;-42
2024/01/20 04:26:46;;;;;;;30.10;21.30;;;-3.10;99.90;;;;;;5115862;28;20171;-40
2024/01/20 04:29:12;;;;;;;26.90;19.00;;;-3.10;99.90;;;;;;5116513;28;20175;-44
2024/01/20 04:31:37;;;;;;;32.60;21.70;;;-3.20;99.90;;;;;;5117066;28;20244;-41
2024/01/20 04:34:03;;;;;;;33.57;21.50;;;-3.10;99.90;;;;;;5117481;28;20905;-40
2024/01/20 04:36:28;;;;;;;32.73;21.53;;;-3.10;99.90;;;;;;5117291;28;20206;-43
2024/01/20 04:38:54;;;;;;;32.87;20.73;;;-3.10;99.90;;;;;;5117104;28;20513;-42
2024/01/20 04:41:19;;;;;;;29.77;20.50;;;-3.10;99.90;;;;;;5116844;28;20592;-42
2024/01/20 04:43:45;;;;;;;32.53;21.43;;;-3.10;99.90;;;;;;5116974;28;20207;-41
2024/01/20 04:46:11;;;;;;;35.40;22.57;;;-3.10;99.90;;;;;;5117117;28;20367;-43
2024/01/20 04:48:36;;;;;;;32.47;20.83;;;-3.10;99.90;;;;;;5116062;28;20172;-46
2024/01/20 04:51:02;;;;;;;28.20;21.07;;;-3.10;99.90;;;;;;5116792;28;20422;-45
2024/01/20 04:53:28;;;;;;;30.57;20.80;;;-3.10;99.90;;;;;;5116902;28;20225;-44
2024/01/20 04:55:54;;;;;;;28.10;20.20;;;-3.10;99.90;;;;;;5116974;28;20773;-42
2024/01/20 04:58:19;;;;;;;32.67;20.70;;;-3.10;99.90;;;;;;5116773;28;20191;-40
2024/01/20 05:00:45;;;;;;;28.90;20.17;;;-3.10;99.90;;;;;;5115272;28;20176;-41
2024/01/20 05:03:10;;;;;;;29.73;21.07;;;-3.00;99.90;;;;;;5115497;28;20211;-42
2024/01/20 05:05:37;;;;;;;28.50;19.07;;;-3.20;99.90;;;;;;5116465;28;20211;-38
2024/01/20 05:08:03;;;;;;;28.20;18.20;;;-3.30;99.90;;;;;;5116733;28;20410;-39
2024/01/20 05:10:29;;;;;;;29.63;19.93;;;-3.40;99.90;;;;;;5116645;28;20529;-39
2024/01/20 05:12:54;;;;;;;27.77;18.37;;;-3.50;99.90;;;;;;5116337;28;20176;-40
2024/01/20 05:15:20;;;;;;;30.37;20.50;;;-3.50;99.90;;;;;;5116292;28;20175;-40
2024/01/20 05:17:46;;;;;;;34.67;21.33;;;-3.40;99.90;;;;;;5116496;28;20221;-41
2024/01/20 05:20:15;;;;;;;31.50;20.87;;;-3.40;99.90;;;;;;5114850;28;20180;-41
2024/01/20 05:22:40;;;;;;;30.17;20.47;;;-3.40;1.00;;;;;;5116230;28;20528;-40
2024/01/20 05:25:06;;;;;;;27.60;19.20;;;-3.40;99.90;;;;;;5116798;28;20658;-41
2024/01/20 05:27:31;;;;;;;31.77;20.17;;;-3.40;1.00;;;;;;5098443;28;20194;-40
2024/01/20 05:29:57;;;;;;;33.80;21.17;;;-3.40;99.90;;;;;;5116490;28;20191;-39
2024/01/20 05:32:22;;;;;;;31.70;21.70;;;-3.40;1.00;;;;;;5116191;28;20598;-39
2024/01/20 05:34:48;;;;;;;36.80;21.40;;;-3.40;99.90;;;;;;5116023;28;20485;-39
2024/01/20 05:37:14;;;;;;;33.00;20.77;;;-3.50;99.90;;;;;;5116370;28;20225;-39
2024/01/20 05:39:39;;;;;;;34.93;21.80;;;-3.50;1.00;;;;;;5115927;28;20554;-44
2024/01/20 05:42:05;;;;;;;30.20;20.83;;;-3.50;1.00;;;;;;5116106;28;20199;-40
2024/01/20 05:44:30;;;;;;;29.33;17.50;;;-3.50;1.00;;;;;;5115005;28;20209;-39
2024/01/20 05:46:56;;;;;;;28.90;18.93;;;-3.60;1.00;;;;;;5116286;28;20595;-42
2024/01/20 05:49:21;;;;;;;30.40;20.87;;;-3.60;1.00;;;;;;5115750;28;20187;-42
2024/01/20 05:51:47;;;;;;;29.27;19.93;;;-3.60;1.00;;;;;;5115775;28;20508;-39
2024/01/20 05:54:12;;;;;;;30.30;21.73;;;-3.50;1.00;;;;;;5115854;28;20639;-41
2024/01/20 05:56:38;;;;;;;33.10;21.17;;;-3.50;1.00;;;;;;5115650;28;20201;-41
2024/01/20 05:59:03;;;;;;;33.43;22.27;;;-3.50;99.90;;;;;;5114488;28;20172;-39
2024/01/20 06:01:29;;;;;;;31.60;21.57;;;-3.60;99.90;;;;;;5114303;28;20176;-44
2024/01/20 06:03:54;;;;;;;34.03;21.73;;;-3.80;1.00;;;;;;5113566;28;20268;-41
2024/01/20 06:06:20;;;;;;;33.17;20.80;;;-3.70;1.00;;;;;;5114381;28;20188;-39
2024/01/20 06:08:45;;;;;;;31.60;21.53;;;-3.70;1.00;;;;;;5113743;28;20500;-40
2024/01/20 06:11:11;;;;;;;33.60;22.27;;;-3.60;1.00;;;;;;5078990;28;20471;-41
2024/01/20 06:13:37;;;;;;;31.60;20.40;;;-3.60;1.00;;;;;;5116855;28;20180;-39
2024/01/20 06:16:06;;;;;;;37.43;22.47;;;-3.70;1.00;;;;;;5119945;28;20194;-39
2024/01/20 06:18:31;;;;;;;38.37;20.70;;;-3.70;1.00;;;;;;5118347;28;20763;-41
2024/01/20 06:20:59;;;;;;;39.93;24.47;;;-3.60;1.00;;;;;;5101318;28;20430;-40
2024/01/20 06:23:25;;;;;;;37.77;22.87;;;-3.60;1.00;;;;;;5119705;28;20262;-43
2024/01/20 06:25:50;;;;;;;35.97;22.63;;;-3.60;1.00;;;;;;5119726;28;20574;-40
2024/01/20 06:28:17;;;;;;;38.53;22.00;;;-3.50;1.00;;;;;;5119574;28;20441;-41
2024/01/20 06:30:43;;;;;;;38.50;23.23;;;-3.60;1.00;;;;;;5118936;28;20199;-39
2024/01/20 06:33:09;;;;;;;35.57;23.67;;;-3.60;1.00;;;;;;5119505;28;20469;-40
2024/01/20 06:35:34;;;;;;;37.73;21.50;;;-3.60;1.00;;;;;;5119128;28;20481;-38
2024/01/20 06:38:00;;;;;;;36.20;23.07;;;-3.70;1.00;;;;;;5117835;28;20225;-41
2024/01/20 06:40:25;;;;;;;35.10;23.67;;;-3.70;1.00;;;;;;5116984;28;20211;-39
2024/01/20 06:42:51;;;;;;;39.23;23.40;;;-3.70;1.00;;;;;;5118087;28;20204;-41
2024/01/20 06:45:17;;;;;;;38.23;23.33;;;-3.70;1.00;;;;;;5118269;28;20299;-44
2024/01/20 06:47:42;;;;;;;35.13;21.70;;;-3.60;1.00;;;;;;5098759;28;20183;-40
2024/01/20 06:50:08;;;;;;;33.53;21.97;;;-3.60;1.00;;;;;;5117268;28;20182;-41
2024/01/20 06:52:34;;;;;;;38.30;25.37;;;-3.60;1.00;;;;;;5116990;28;20180;-41
2024/01/20 06:54:59;;;;;;;39.10;23.80;;;-3.60;1.00;;;;;;5117615;28;20519;-40
2024/01/20 06:57:25;;;;;;;35.10;22.63;;;-3.60;1.00;;;;;;5116735;28;20531;-39
2024/01/20 06:59:51;;;;;;;35.90;22.00;;;-3.70;99.90;;;;;;5099908;28;20168;-40
2024/01/20 07:02:16;;;;;;;37.90;21.87;;;-3.70;99.90;;;;;;5117637;28;20186;-41
2024/01/20 07:04:42;;;;;;;33.13;23.60;;;-3.90;1.00;;;;;;5117595;28;20338;-42
2024/01/20 07:07:07;;;;;;;32.23;21.70;;;-3.90;1.00;;;;;;5118531;28;20210;-41
2024/01/20 07:09:38;;;;;;;36.20;23.00;;;-3.90;1.00;;;;;;5116729;28;20180;-40
2024/01/20 07:12:04;;;;;;;39.87;24.37;;;-3.90;1.00;;;;;;5118177;28;20229;-40
2024/01/20 07:14:30;;;;;;;35.90;24.00;;;-3.90;1.00;;;;;;5117748;28;20803;-40
2024/01/20 07:16:55;;;;;;;36.33;23.73;;;-3.80;1.00;;;;;;5119457;28;20421;-40
2024/01/20 07:19:21;;;;;;;39.67;24.77;;;-3.80;1.00;;;;;;5118108;28;20204;-41
2024/01/20 07:21:47;;;;;;;33.57;21.50;;;-3.80;1.00;;;;;;5117045;28;20259;-39
2024/01/20 07:24:12;;;;;;;39.60;22.13;;;-3.80;1.00;;;;;;5116711;28;20203;-41
2024/01/20 07:26:38;;;;;;;37.10;23.10;;;-3.80;1.00;;;;;;5115640;28;20164;-40
2024/01/20 07:29:03;;;;;;;35.50;23.83;;;-3.90;1.00;;;;;;5115588;28;20421;-38
2024/01/20 07:31:29;;;;;;;33.77;22.20;;;-3.90;1.00;;;;;;5116475;28;20195;-40
2024/01/20 07:33:54;;;;;;;34.90;23.33;;;-3.80;1.00;;;;;;5117186;28;20195;-40
2024/01/20 07:36:20;;;;;;;38.77;24.80;;;-3.80;1.00;;;;;;5115614;28;20252;-40
2024/01/20 07:38:45;;;;;;;41.00;24.70;;;-3.80;1.00;;;;;;5116008;28;20266;-40
2024/01/20 07:41:11;;;;;;;33.47;21.23;;;-3.70;1.00;;;;;;5117135;28;20171;-41
2024/01/20 07:43:36;;;;;;;38.30;24.00;;;-3.70;1.00;;;;;;5116553;28;20180;-40
2024/01/20 07:46:02;;;;;;;35.03;22.60;;;-3.70;1.00;;;;;;5116150;28;20248;-40
2024/01/20 07:48:27;;;;;;;38.47;24.37;;;-3.60;1.00;;;;;;5115419;28;20241;-41
2024/01/20 07:50:54;;;;;;;41.83;23.40;;;-3.60;1.00;;;;;;5116328;28;20442;-41
2024/01/20 07:53:19;;;;;;;36.40;25.10;;;-3.70;99.90;;;;;;5098218;28;20172;-40
2024/01/20 07:55:45;;;;;;;31.67;21.97;;;-3.70;1.00;;;;;;5116039;28;20744;-41
2024/01/20 07:58:10;;;;;;;36.00;23.87;;;-3.80;1.00;;;;;;5116932;28;20604;-40
2024/01/20 08:00:36;;;;;;;41.07;25.30;;;-3.70;1.00;;;;;;5117268;28;20257;-41
2024/01/20 08:03:01;;;;;;;33.03;21.53;;;-3.70;99.90;;;;;;5116069;28;20179;-43
2024/01/20 08:05:27;;;;;;;40.90;23.43;;;-3.60;99.90;;;;;;5116304;28;20592;-41
2024/01/20 08:07:52;;;;;;;30.80;20.77;;;-3.60;99.90;;;;;;5115093;28;20758;-43
2024/01/20 08:10:18;;;;;;;32.53;20.60;;;-3.60;99.90;;;;;;5096475;28;20645;-41
2024/01/20 08:12:43;;;;;;;41.90;25.83;;;-3.60;99.90;;;;;;5114833;28;20461;-40
2024/01/20 08:15:09;;;;;;;50.80;27.60;;;-3.60;99.90;;;;;;5117344;28;20554;-43
2024/01/20 08:17:35;;;;;;;32.00;20.87;;;-3.60;99.90;;;;;;5117671;28;20171;-41
2024/01/20 08:20:00;;;;;;;33.43;21.97;;;-3.50;99.90;;;;;;5117852;28;20180;-49
2024/01/20 08:22:26;;;;;;;30.77;21.07;;;-3.60;99.90;;;;;;5117195;28;20278;-41
2024/01/20 08:24:51;;;;;;;35.47;22.13;;;-3.50;99.90;;;;;;5116819;28;20290;-43
2024/01/20 08:27:18;;;;;;;34.47;22.87;;;-3.40;99.90;;;;;;5117765;28;20623;-40
2024/01/20 08:29:43;;;;;;;36.57;23.20;;;-3.40;99.90;;;;;;5117481;28;20232;-41
2024/01/20 08:32:09;;;;;;;38.30;24.07;;;-3.30;99.90;;;;;;5098499;28;20789;-41
2024/01/20 08:34:34;;;;;;;35.30;24.00;;;-3.10;99.90;;;;;;5116191;28;20184;-42
2024/01/20 08:37:00;;;;;;;36.30;25.53;;;-2.90;99.90;;;;;;5098636;28;20469;-42
2024/01/20 08:39:25;;;;;;;35.63;22.33;;;-2.70;99.90;;;;;;5117415;28;20187;-41
2024/01/20 08:41:51;;;;;;;35.77;25.10;;;-2.60;42.20;;;;;;5116734;28;20182;-41
2024/01/20 08:44:17;;;;;;;35.17;25.50;;;-2.50;1.00;;;;;;5096397;28;20204;-40
2024/01/20 08:46:42;;;;;;;37.20;27.47;;;-2.50;1.00;;;;;;5114794;28;20587;-42
2024/01/20 08:49:08;;;;;;;31.97;22.87;;;-2.40;1.00;;;;;;5116640;28;20438;-40
2024/01/20 08:51:33;;;;;;;37.30;23.03;;;-2.30;1.00;;;;;;5116798;28;20751;-43
2024/01/20 08:53:59;;;;;;;36.27;25.20;;;-2.20;1.00;;;;;;5116578;28;20262;-41
2024/01/20 08:56:25;;;;;;;35.20;24.50;;;-2.10;1.00;;;;;;5117229;28;20176;-41
2024/01/20 08:58:50;;;;;;;37.03;24.80;;;-1.90;1.00;;;;;;5098718;28;20183;-42
2024/01/20 09:01:16;;;;;;;34.90;22.37;;;-1.80;99.90;;;;;;5115405;28;20527;-43
2024/01/20 09:03:42;;;;;;;32.50;21.27;;;-1.90;1.00;;;;;;5113259;28;20321;-42
2024/01/20 09:06:07;;;;;;;32.67;22.27;;;-1.90;93.90;;;;;;5096342;28;20528;-42
2024/01/20 09:08:35;;;;;;;31.87;21.43;;;-2.00;97.00;;;;;;5114395;28;20206;-42
2024/01/20 09:11:00;;;;;;;35.63;22.83;;;-1.80;1.00;;;;;;5115431;28;20508;-44
2024/01/20 09:13:26;;;;;;;33.83;22.93;;;-1.70;1.00;;;;;;5097181;28;20237;-42
2024/01/20 09:15:52;;;;;;;34.00;22.17;;;-1.40;99.90;;;;;;5115496;28;20180;-42
2024/01/20 09:18:17;;;;;;;34.27;22.83;;;-1.10;99.90;;;;;;5114366;28;20164;-40
2024/01/20 09:20:43;;;;;;;38.23;27.40;;;-0.90;1.00;;;;;;5095782;28;20516;-43
2024/01/20 09:23:09;;;;;;;35.93;24.67;;;-1.00;99.90;;;;;;5114865;28;20176;-43
2024/01/20 09:25:34;;;;;;;32.87;23.13;;;-0.50;1.00;;;;;;5115922;28;20459;-40
2024/01/20 09:28:00;;;;;;;34.87;24.27;;;-0.30;99.90;;;;;;5116395;28;20186;-41
2024/01/20 09:30:26;;;;;;;30.97;22.50;;;-0.30;1.00;;;;;;5116188;28;20172;-42
2024/01/20 09:32:51;;;;;;;35.00;23.87;;;-0.50;5.80;;;;;;5114673;28;20246;-42
2024/01/20 09:35:17;;;;;;;32.03;22.10;;;-0.50;1.00;;;;;;5114209;28;20672;-40
2024/01/20 09:37:42;;;;;;;32.47;22.83;;;-0.50;99.90;;;;;;5114753;28;20284;-43
2024/01/20 09:40:09;;;;;;;34.07;22.77;;;-0.40;1.00;;;;;;5113812;28;20192;-43
2024/01/20 09:42:34;;;;;;;35.47;22.77;;;-0.20;99.90;;;;;;5114581;28;20187;-41
2024/01/20 09:45:00;;;;;;;32.10;21.83;;;0.10;99.90;;;;;;5109504;28;20472;-41
2024/01/20 09:47:26;;;;;;;34.60;25.30;;;0.30;1.00;;;;;;5136974;27;20244;-42
2024/01/20 09:49:52;;;;;;;31.53;23.50;;;0.60;1.00;;;;;;5141303;27;20610;-41
2024/01/20 09:52:27;;;;;;;28.43;22.30;;;0.80;1.00;;;;;;5137265;27;20511;-43
2024/01/20 09:55:31;;;;;;;30.40;22.10;;;1.70;99.90;;;;;;5101907;28;20187;-40
2024/01/20 09:57:57;;;;;;;27.97;21.87;;;3.50;20.50;;;;;;5024518;28;20555;-42
2024/01/20 10:00:23;;;;;;;27.60;20.63;;;5.20;1.00;;;;;;5008212;28;20535;-41
2024/01/20 10:02:49;;;;;;;26.23;20.83;;;5.90;1.00;;;;;;5052734;28;20483;-43
2024/01/20 10:05:15;;;;;;;24.87;21.03;;;6.30;1.00;;;;;;5118858;28;20476;-42
2024/01/20 10:07:41;;;;;;;25.67;21.30;;;7.70;1.00;;;;;;5120357;28;20176;-42
2024/01/20 10:10:11;;;;;;;25.03;21.30;;;8.80;1.00;;;;;;5100504;28;20513;-41
2024/01/20 10:12:37;;;;;;;23.23;19.97;;;9.20;1.00;;;;;;5099691;28;20903;-43
2024/01/20 10:15:03;;;;;;;23.00;20.07;;;9.70;1.00;;;;;;5126746;27;20433;-40
2024/01/20 10:17:29;;;;;;;26.30;20.57;;;10.60;1.00;;;;;;5116446;28;20598;-42
2024/01/20 10:19:54;;;;;;;23.23;20.83;;;10.90;1.00;;;;;;5116182;28;20516;-46
2024/01/20 10:22:20;;;;;;;20.43;18.23;;;11.30;1.00;;;;;;5116773;28;20169;-42
2024/01/20 10:24:52;;;;;;;20.17;18.00;;;12.30;1.00;;;;;;5119060;28;20306;-44
2024/01/20 10:27:25;;;;;;;20.67;18.57;;;12.90;1.00;;;;;;5118941;28;20184;-43
2024/01/20 10:29:51;;;;;;;20.30;18.20;;;13.90;1.00;;;;;;5115687;28;20402;-43
2024/01/20 10:32:17;;;;;;;18.23;16.33;;;13.80;1.00;;;;;;5116866;28;20785;-43
2024/01/20 10:34:43;;;;;;;21.47;19.30;;;13.90;1.00;;;;;;5116972;28;20889;-42
2024/01/20 10:37:11;;;;;;;22.17;19.97;;;14.00;1.00;;;;;;5119028;28;20421;-41
2024/01/20 10:39:46;;;;;;;19.90;17.80;;;14.30;1.00;;;;;;5118184;28;20425;-43
2024/01/20 10:42:13;;;;;;;20.83;18.73;;;14.40;1.00;;;;;;5117959;28;20417;-40
2024/01/20 10:44:42;;;;;;;18.83;17.00;;;14.10;1.00;;;;;;5116472;28;20472;-39
2024/01/20 10:47:15;;;;;;;19.80;17.83;;;13.90;1.00;;;;;;5116113;28;20846;-41
2024/01/20 10:49:45;;;;;;;17.20;15.60;;;13.90;1.00;;;;;;5115278;28;20505;-44
2024/01/20 10:52:11;;;;;;;14.87;13.37;;;14.20;1.00;;;;;;5116164;28;20426;-42
2024/01/20 10:54:37;;;;;;;19.23;16.50;;;15.10;1.00;;;;;;5099316;28;20497;-43
2024/01/20 10:57:03;;;;;;;19.90;16.97;;;16.10;1.00;;;;;;5117798;28;20527;-41
2024/01/20 10:59:30;;;;;;;20.07;18.00;;;16.20;1.00;;;;;;5097572;28;20871;-42
2024/01/20 11:01:58;;;;;;;18.97;17.37;;;16.00;1.00;;;;;;5091780;28;20692;-44
2024/01/20 11:04:31;;;;;;;19.20;17.30;;;16.20;1.00;;;;;;5113092;28;20524;-43
2024/01/20 11:06:57;;;;;;;22.33;20.23;;;16.30;1.00;;;;;;5113974;28;20414;-41
2024/01/20 11:09:22;;;;;;;19.50;17.80;;;16.30;1.00;;;;;;5094436;28;20800;-43
2024/01/20 11:12:00;;;;;;;20.13;18.23;;;16.10;1.00;;;;;;5113984;28;20220;-41
2024/01/20 11:14:32;;;;;;;21.23;19.23;;;16.40;1.00;;;;;;5114233;28;20168;-41
2024/01/20 11:17:11;;;;;;;21.73;19.73;;;16.90;1.00;;;;;;5079671;28;20733;-43
2024/01/20 11:19:38;;;;;;;23.60;21.20;;;17.40;1.00;;;;;;5113709;28;20452;-45
2024/01/20 11:22:04;;;;;;;21.87;19.77;;;17.50;1.00;;;;;;5115304;28;20450;-44
2024/01/20 11:24:41;;;;;;;23.07;21.07;;;17.80;1.00;;;;;;5115064;28;20492;-44
2024/01/20 11:27:07;;;;;;;16.90;15.40;;;18.60;1.00;;;;;;5115477;28;20505;-45
2024/01/20 11:29:32;;;;;;;19.17;17.37;;;19.60;1.00;;;;;;5114379;28;20497;-45
2024/01/20 11:31:58;;;;;;;16.93;15.37;;;20.20;1.00;;;;;;5095401;28;20465;-46
2024/01/20 11:34:24;;;;;;;17.53;15.93;;;20.30;1.00;;;;;;5113346;28;20293;-44
2024/01/20 11:36:49;;;;;;;17.03;15.70;;;20.50;1.00;;;;;;5114884;28;20187;-42
2024/01/20 11:39:17;;;;;;;18.83;17.13;;;20.20;1.00;;;;;;5116948;28;20250;-44
2024/01/20 11:41:43;;;;;;;18.57;16.63;;;19.90;1.00;;;;;;5115896;28;20674;-43
2024/01/20 11:44:08;;;;;;;18.90;17.30;;;18.50;1.00;;;;;;5116474;28;20457;-44
2024/01/20 11:46:35;;;;;;;17.40;15.87;;;17.80;1.00;;;;;;5096939;28;20180;-45
2024/01/20 11:49:02;;;;;;;18.30;16.80;;;17.20;1.00;;;;;;5097058;28;20199;-42
2024/01/20 11:51:27;;;;;;;19.30;17.30;;;16.90;1.00;;;;;;5116449;28;20424;-42
2024/01/20 11:53:53;;;;;;;20.40;18.50;;;17.70;1.00;;;;;;5117440;28;20695;-45
2024/01/20 11:56:18;;;;;;;18.50;16.87;;;18.10;1.00;;;;;;5115474;28;20176;-42
2024/01/20 11:58:44;;;;;;;15.63;14.10;;;19.10;1.00;;;;;;5115418;28;20454;-43
2024/01/20 12:01:09;;;;;;;15.50;14.10;;;19.30;1.00;;;;;;5114552;28;20179;-42
2024/01/20 12:03:35;;;;;;;15.87;14.47;;;19.50;1.00;;;;;;5115301;28;20638;-42
2024/01/20 12:06:07;;;;;;;16.53;15.13;;;19.50;1.00;;;;;;5098271;28;20172;-43
2024/01/20 12:08:35;;;;;;;16.70;15.20;;;18.40;1.00;;;;;;5117072;28;20336;-41
2024/01/20 12:11:00;;;;;;;16.43;14.93;;;18.00;1.00;;;;;;5114226;28;20439;-44
2024/01/20 12:13:32;;;;;;;18.30;16.70;;;17.50;1.00;;;;;;5117172;28;20436;-47
2024/01/20 12:15:58;;;;;;;16.07;14.57;;;16.90;1.00;;;;;;5116045;28;20473;-43
2024/01/20 12:18:24;;;;;;;16.13;14.63;;;16.40;1.00;;;;;;5115537;28;20525;-45
2024/01/20 12:20:49;;;;;;;17.10;15.30;;;16.30;1.00;;;;;;5115074;28;20244;-44
2024/01/20 12:23:19;;;;;;;13.70;12.50;;;16.50;1.00;;;;;;5117762;28;20186;-42
2024/01/20 12:25:45;;;;;;;16.60;15.03;;;16.00;1.00;;;;;;5116451;28;20207;-42
2024/01/20 12:28:11;;;;;;;16.53;14.93;;;15.80;1.00;;;;;;5117644;28;20731;-47